sensor_id;sensor_type;location;lat;lon;timestamp;temperature;humidity
11089;DHT22;5598;48.648;8.908;2023-01-16T00:01:18;1.50;99.90
11089;DHT22;5598;48.648;8.908;2023-01-16T00:03:45;1.40;99.90
11089;DHT22;5598;48.648;8.908;2023-01-16T00:06:12;1.40;99.90
11089;DHT22;5598;48.648;8.908;2023-01-16T00:08:40;1.40;99.90
11089;DHT22;5598;48.648;8.908;2023-01-16T00:11:09;1.40;99.90
11089;DHT22;5598;48.648;8.908;2023-01-16T00:13:37;1.30;99.90
11089;DHT22;5598;48.648;8.908;2023-01-16T00:16:05;1.30;99.90
11089;DHT22;5598;48.648;8.908;2023-01-16T00:18:32;1.30;99.90
11089;DHT22;5598;48.648;8.908;2023-01-16T00:20:59;1.30;99.90
11089;DHT22;5598;48.648;8.908;2023-01-16T00:23:26;1.30;99.90
11089;DHT22;5598;48.648;8.908;2023-01-16T00:25:53;1.30;99.90
11089;DHT22;5598;48.648;8.908;2023-01-16T00:28:21;1.30;99.90
11089;DHT22;5598;48.648;8.908;2023-01-16T00:30:47;1.30;99.90
11089;DHT22;5598;48.648;8.908;2023-01-16T00:33:14;1.40;99.90
11089;DHT22;5598;48.648;8.908;2023-01-16T00:35:41;1.40;99.90
11089;DHT22;5598;48.648;8.908;2023-01-16T00:38:08;1.40;99.90
11089;DHT22;5598;48.648;8.908;2023-01-16T00:40:35;1.40;99.90
11089;DHT22;5598;48.648;8.908;2023-01-16T00:43:02;1.50;99.90
11089;DHT22;5598;48.648;8.908;2023-01-16T00:45:30;1.50;99.90
11089;DHT22;5598;48.648;8.908;2023-01-16T00:47:57;1.50;99.90
11089;DHT22;5598;48.648;8.908;2023-01-16T00:50:24;1.50;99.90
11089;DHT22;5598;48.648;8.908;2023-01-16T00:52:51;1.50;99.90
11089;DHT22;5598;48.648;8.908;2023-01-16T00:55:18;1.50;99.90
11089;DHT22;5598;48.648;8.908;2023-01-16T00:57:45;1.40;99.90
11089;DHT22;5598;48.648;8.908;2023-01-16T01:00:12;1.40;99.90
11089;DHT22;5598;48.648;8.908;2023-01-16T01:02:40;1.30;99.90
11089;DHT22;5598;48.648;8.908;2023-01-16T01:05:07;1.30;99.90
11089;DHT22;5598;48.648;8.908;2023-01-16T01:07:34;1.30;99.90
11089;DHT22;5598;48.648;8.908;2023-01-16T01:10:01;1.30;99.90
11089;DHT22;5598;48.648;8.908;2023-01-16T01:12:28;1.30;99.90
11089;DHT22;5598;48.648;8.908;2023-01-16T01:14:57;1.30;99.90
11089;DHT22;5598;48.648;8.908;2023-01-16T01:17:24;1.20;99.90
11089;DHT22;5598;48.648;8.908;2023-01-16T01:19:52;1.20;99.90
11089;DHT22;5598;48.648;8.908;2023-01-16T01:22:19;1.10;99.90
11089;DHT22;5598;48.648;8.908;2023-01-16T01:24:49;1.10;99.90
11089;DHT22;5598;48.648;8.908;2023-01-16T01:27:16;1.20;99.90
11089;DHT22;5598;48.648;8.908;2023-01-16T01:29:43;1.20;99.90
11089;DHT22;5598;48.648;8.908;2023-01-16T01:32:10;1.10;99.90
11089;DHT22;5598;48.648;8.908;2023-01-16T01:34:37;1.10;99.90
11089;DHT22;5598;48.648;8.908;2023-01-16T01:37:06;1.10;99.90
11089;DHT22;5598;48.648;8.908;2023-01-16T01:39:33;1.20;99.90
11089;DHT22;5598;48.648;8.908;2023-01-16T01:42:00;1.20;99.90
11089;DHT22;5598;48.648;8.908;2023-01-16T01:44:49;1.20;99.90
11089;DHT22;5598;48.648;8.908;2023-01-16T01:47:18;1.10;99.90
11089;DHT22;5598;48.648;8.908;2023-01-16T01:49:46;1.10;99.90
11089;DHT22;5598;48.648;8.908;2023-01-16T01:52:15;1.10;99.90
11089;DHT22;5598;48.648;8.908;2023-01-16T01:54:47;1.10;99.90
11089;DHT22;5598;48.648;8.908;2023-01-16T01:57:17;1.10;99.90
11089;DHT22;5598;48.648;8.908;2023-01-16T01:59:49;1.00;99.90
11089;DHT22;5598;48.648;8.908;2023-01-16T02:02:21;1.00;99.90
11089;DHT22;5598;48.648;8.908;2023-01-16T02:04:50;1.00;99.90
11089;DHT22;5598;48.648;8.908;2023-01-16T02:07:24;1.00;99.90
11089;DHT22;5598;48.648;8.908;2023-01-16T02:09:56;1.00;99.90
11089;DHT22;5598;48.648;8.908;2023-01-16T02:12:26;0.90;99.90
11089;DHT22;5598;48.648;8.908;2023-01-16T02:14:55;1.00;99.90
11089;DHT22;5598;48.648;8.908;2023-01-16T02:17:22;1.00;99.90
11089;DHT22;5598;48.648;8.908;2023-01-16T02:20:15;0.90;99.90
11089;DHT22;5598;48.648;8.908;2023-01-16T02:23:09;0.90;99.90
11089;DHT22;5598;48.648;8.908;2023-01-16T02:31:46;1.00;99.90
11089;DHT22;5598;48.648;8.908;2023-01-16T02:34:31;1.10;99.90
11089;DHT22;5598;48.648;8.908;2023-01-16T02:37:07;1.10;99.90
11089;DHT22;5598;48.648;8.908;2023-01-16T02:39:42;1.20;99.90
11089;DHT22;5598;48.648;8.908;2023-01-16T02:42:16;1.20;99.90
11089;DHT22;5598;48.648;8.908;2023-01-16T02:44:51;1.20;99.90
11089;DHT22;5598;48.648;8.908;2023-01-16T02:47:24;1.30;99.90
11089;DHT22;5598;48.648;8.908;2023-01-16T02:50:02;1.40;99.90
11089;DHT22;5598;48.648;8.908;2023-01-16T02:52:35;1.50;99.90
11089;DHT22;5598;48.648;8.908;2023-01-16T02:55:07;1.50;99.90
11089;DHT22;5598;48.648;8.908;2023-01-16T02:57:40;1.50;99.90
11089;DHT22;5598;48.648;8.908;2023-01-16T03:00:10;1.50;99.90
11089;DHT22;5598;48.648;8.908;2023-01-16T03:02:40;1.50;99.90
11089;DHT22;5598;48.648;8.908;2023-01-16T03:05:07;1.50;99.90
11089;DHT22;5598;48.648;8.908;2023-01-16T03:10:55;1.60;99.90
11089;DHT22;5598;48.648;8.908;2023-01-16T03:13:43;1.70;99.90
11089;DHT22;5598;48.648;8.908;2023-01-16T03:16:22;1.80;99.90
11089;DHT22;5598;48.648;8.908;2023-01-16T03:19:04;1.90;99.90
11089;DHT22;5598;48.648;8.908;2023-01-16T03:21:41;1.90;99.90
11089;DHT22;5598;48.648;8.908;2023-01-16T03:24:25;1.90;99.90
11089;DHT22;5598;48.648;8.908;2023-01-16T03:26:58;2.00;99.90
11089;DHT22;5598;48.648;8.908;2023-01-16T03:29:31;1.90;99.90
11089;DHT22;5598;48.648;8.908;2023-01-16T03:32:05;2.00;99.90
11089;DHT22;5598;48.648;8.908;2023-01-16T03:34:41;2.00;99.90
11089;DHT22;5598;48.648;8.908;2023-01-16T03:37:13;2.00;99.90
11089;DHT22;5598;48.648;8.908;2023-01-16T03:39:45;2.10;99.90
11089;DHT22;5598;48.648;8.908;2023-01-16T03:42:15;2.10;99.90
11089;DHT22;5598;48.648;8.908;2023-01-16T03:44:45;2.10;99.90
11089;DHT22;5598;48.648;8.908;2023-01-16T03:47:18;2.20;99.90
11089;DHT22;5598;48.648;8.908;2023-01-16T03:49:51;2.30;99.90
11089;DHT22;5598;48.648;8.908;2023-01-16T03:52:22;2.30;99.90
11089;DHT22;5598;48.648;8.908;2023-01-16T03:54:55;2.30;99.90
11089;DHT22;5598;48.648;8.908;2023-01-16T03:57:27;2.30;99.90
11089;DHT22;5598;48.648;8.908;2023-01-16T03:59:56;2.30;99.90
11089;DHT22;5598;48.648;8.908;2023-01-16T04:02:30;2.30;99.90
11089;DHT22;5598;48.648;8.908;2023-01-16T04:05:04;2.20;99.90
11089;DHT22;5598;48.648;8.908;2023-01-16T04:07:36;2.20;99.90
11089;DHT22;5598;48.648;8.908;2023-01-16T04:10:09;2.10;99.90
11089;DHT22;5598;48.648;8.908;2023-01-16T04:12:42;2.10;99.90
11089;DHT22;5598;48.648;8.908;2023-01-16T04:15:10;2.10;99.90
11089;DHT22;5598;48.648;8.908;2023-01-16T04:17:38;2.10;99.90
11089;DHT22;5598;48.648;8.908;2023-01-16T04:20:09;2.00;99.90
11089;DHT22;5598;48.648;8.908;2023-01-16T04:22:36;2.00;99.90
11089;DHT22;5598;48.648;8.908;2023-01-16T04:25:06;2.00;99.90
11089;DHT22;5598;48.648;8.908;2023-01-16T04:27:34;2.00;99.90
11089;DHT22;5598;48.648;8.908;2023-01-16T04:30:00;2.00;99.90
11089;DHT22;5598;48.648;8.908;2023-01-16T04:32:27;2.00;99.90
11089;DHT22;5598;48.648;8.908;2023-01-16T04:34:54;2.00;99.90
11089;DHT22;5598;48.648;8.908;2023-01-16T04:37:22;2.00;99.90
11089;DHT22;5598;48.648;8.908;2023-01-16T04:39:49;2.00;99.90
11089;DHT22;5598;48.648;8.908;2023-01-16T04:42:16;1.90;99.90
11089;DHT22;5598;48.648;8.908;2023-01-16T04:44:43;1.90;99.90
11089;DHT22;5598;48.648;8.908;2023-01-16T04:47:10;1.80;99.90
11089;DHT22;5598;48.648;8.908;2023-01-16T04:49:36;1.70;99.90
11089;DHT22;5598;48.648;8.908;2023-01-16T04:52:04;1.60;99.90
11089;DHT22;5598;48.648;8.908;2023-01-16T04:54:32;1.60;99.90
11089;DHT22;5598;48.648;8.908;2023-01-16T04:56:58;1.60;99.90
11089;DHT22;5598;48.648;8.908;2023-01-16T04:59:26;1.50;99.90
11089;DHT22;5598;48.648;8.908;2023-01-16T05:01:53;1.50;99.90
11089;DHT22;5598;48.648;8.908;2023-01-16T05:04:20;1.40;99.90
11089;DHT22;5598;48.648;8.908;2023-01-16T05:06:46;1.40;99.90
11089;DHT22;5598;48.648;8.908;2023-01-16T05:09:13;1.40;99.90
11089;DHT22;5598;48.648;8.908;2023-01-16T05:11:41;1.30;99.90
11089;DHT22;5598;48.648;8.908;2023-01-16T05:14:08;1.30;99.90
11089;DHT22;5598;48.648;8.908;2023-01-16T05:16:36;1.30;99.90
11089;DHT22;5598;48.648;8.908;2023-01-16T05:19:04;1.20;99.90
11089;DHT22;5598;48.648;8.908;2023-01-16T05:21:31;1.20;99.90
11089;DHT22;5598;48.648;8.908;2023-01-16T05:23:58;1.30;99.90
11089;DHT22;5598;48.648;8.908;2023-01-16T05:26:25;1.30;99.90
11089;DHT22;5598;48.648;8.908;2023-01-16T05:28:53;1.30;99.90
11089;DHT22;5598;48.648;8.908;2023-01-16T05:31:20;1.40;99.90
11089;DHT22;5598;48.648;8.908;2023-01-16T05:33:47;1.40;99.90
11089;DHT22;5598;48.648;8.908;2023-01-16T05:36:13;1.30;99.90
11089;DHT22;5598;48.648;8.908;2023-01-16T05:38:40;1.20;99.90
11089;DHT22;5598;48.648;8.908;2023-01-16T05:41:07;1.20;99.90
11089;DHT22;5598;48.648;8.908;2023-01-16T05:43:34;1.20;99.90
11089;DHT22;5598;48.648;8.908;2023-01-16T05:46:02;1.20;99.90
11089;DHT22;5598;48.648;8.908;2023-01-16T05:48:29;1.20;99.90
11089;DHT22;5598;48.648;8.908;2023-01-16T05:50:57;1.20;99.90
11089;DHT22;5598;48.648;8.908;2023-01-16T05:53:24;1.20;99.90
11089;DHT22;5598;48.648;8.908;2023-01-16T05:55:53;1.10;99.90
11089;DHT22;5598;48.648;8.908;2023-01-16T05:58:20;1.10;99.90
11089;DHT22;5598;48.648;8.908;2023-01-16T06:00:46;1.10;99.90
11089;DHT22;5598;48.648;8.908;2023-01-16T06:03:15;1.10;99.90
11089;DHT22;5598;48.648;8.908;2023-01-16T06:05:43;1.00;99.90
11089;DHT22;5598;48.648;8.908;2023-01-16T06:08:09;1.00;99.90
11089;DHT22;5598;48.648;8.908;2023-01-16T06:10:39;1.00;99.90
11089;DHT22;5598;48.648;8.908;2023-01-16T06:13:06;0.90;99.90
11089;DHT22;5598;48.648;8.908;2023-01-16T06:15:33;0.90;99.90
11089;DHT22;5598;48.648;8.908;2023-01-16T06:18:00;0.90;99.90
11089;DHT22;5598;48.648;8.908;2023-01-16T06:20:28;1.00;99.90
11089;DHT22;5598;48.648;8.908;2023-01-16T06:22:54;1.00;99.90
11089;DHT22;5598;48.648;8.908;2023-01-16T06:25:21;1.00;99.90
11089;DHT22;5598;48.648;8.908;2023-01-16T06:27:48;1.10;99.90
11089;DHT22;5598;48.648;8.908;2023-01-16T06:30:16;1.10;99.90
11089;DHT22;5598;48.648;8.908;2023-01-16T06:32:43;1.20;99.90
11089;DHT22;5598;48.648;8.908;2023-01-16T06:35:10;1.20;99.90
11089;DHT22;5598;48.648;8.908;2023-01-16T06:37:38;1.30;99.90
11089;DHT22;5598;48.648;8.908;2023-01-16T06:40:06;1.40;99.90
11089;DHT22;5598;48.648;8.908;2023-01-16T06:42:33;1.50;99.90
11089;DHT22;5598;48.648;8.908;2023-01-16T06:45:00;1.50;99.90
11089;DHT22;5598;48.648;8.908;2023-01-16T06:47:27;1.50;99.90
11089;DHT22;5598;48.648;8.908;2023-01-16T06:49:54;1.50;99.90
11089;DHT22;5598;48.648;8.908;2023-01-16T06:52:21;1.60;99.90
11089;DHT22;5598;48.648;8.908;2023-01-16T06:54:49;1.70;99.90
11089;DHT22;5598;48.648;8.908;2023-01-16T06:57:16;1.70;99.90
11089;DHT22;5598;48.648;8.908;2023-01-16T06:59:42;1.70;99.90
11089;DHT22;5598;48.648;8.908;2023-01-16T07:02:09;1.70;99.90
11089;DHT22;5598;48.648;8.908;2023-01-16T07:04:36;1.70;99.90
11089;DHT22;5598;48.648;8.908;2023-01-16T07:07:03;1.70;99.90
11089;DHT22;5598;48.648;8.908;2023-01-16T07:09:30;1.70;99.90
11089;DHT22;5598;48.648;8.908;2023-01-16T07:11:59;1.70;99.90
11089;DHT22;5598;48.648;8.908;2023-01-16T07:14:26;1.80;99.90
11089;DHT22;5598;48.648;8.908;2023-01-16T07:17:10;1.90;99.90
11089;DHT22;5598;48.648;8.908;2023-01-16T07:19:55;1.90;99.90
11089;DHT22;5598;48.648;8.908;2023-01-16T07:22:40;1.90;99.90
11089;DHT22;5598;48.648;8.908;2023-01-16T07:25:12;1.80;99.90
11089;DHT22;5598;48.648;8.908;2023-01-16T07:27:42;1.80;99.90
11089;DHT22;5598;48.648;8.908;2023-01-16T07:30:09;1.90;99.90
11089;DHT22;5598;48.648;8.908;2023-01-16T07:32:37;1.90;99.90
11089;DHT22;5598;48.648;8.908;2023-01-16T07:35:04;2.00;99.90
11089;DHT22;5598;48.648;8.908;2023-01-16T07:37:32;2.00;99.90
11089;DHT22;5598;48.648;8.908;2023-01-16T07:39:59;2.00;99.90
11089;DHT22;5598;48.648;8.908;2023-01-16T07:42:26;2.00;99.90
11089;DHT22;5598;48.648;8.908;2023-01-16T07:44:54;1.90;99.90
11089;DHT22;5598;48.648;8.908;2023-01-16T07:47:21;2.00;99.90
11089;DHT22;5598;48.648;8.908;2023-01-16T07:49:48;1.90;99.90
11089;DHT22;5598;48.648;8.908;2023-01-16T07:52:15;1.90;99.90
11089;DHT22;5598;48.648;8.908;2023-01-16T07:54:42;1.90;99.90
11089;DHT22;5598;48.648;8.908;2023-01-16T07:57:09;1.80;99.90
11089;DHT22;5598;48.648;8.908;2023-01-16T07:59:36;1.80;99.90
11089;DHT22;5598;48.648;8.908;2023-01-16T08:02:04;1.80;99.90
11089;DHT22;5598;48.648;8.908;2023-01-16T08:04:31;1.90;99.90
11089;DHT22;5598;48.648;8.908;2023-01-16T08:06:58;2.00;99.90
11089;DHT22;5598;48.648;8.908;2023-01-16T08:09:24;2.00;99.90
11089;DHT22;5598;48.648;8.908;2023-01-16T08:11:51;2.00;99.90
11089;DHT22;5598;48.648;8.908;2023-01-16T08:14:18;2.00;99.90
11089;DHT22;5598;48.648;8.908;2023-01-16T08:16:45;2.00;99.90
11089;DHT22;5598;48.648;8.908;2023-01-16T08:19:13;2.00;99.90
11089;DHT22;5598;48.648;8.908;2023-01-16T08:21:40;2.00;99.90
11089;DHT22;5598;48.648;8.908;2023-01-16T08:24:10;1.90;99.90
11089;DHT22;5598;48.648;8.908;2023-01-16T08:26:38;1.90;99.90
11089;DHT22;5598;48.648;8.908;2023-01-16T08:29:06;2.00;99.90
11089;DHT22;5598;48.648;8.908;2023-01-16T08:31:33;2.00;99.90
11089;DHT22;5598;48.648;8.908;2023-01-16T08:33:59;2.10;99.90
11089;DHT22;5598;48.648;8.908;2023-01-16T08:36:28;2.10;99.90
11089;DHT22;5598;48.648;8.908;2023-01-16T08:38:54;2.10;99.90
11089;DHT22;5598;48.648;8.908;2023-01-16T08:41:21;2.10;99.90
11089;DHT22;5598;48.648;8.908;2023-01-16T08:44:05;2.10;99.90
11089;DHT22;5598;48.648;8.908;2023-01-16T08:46:54;2.10;99.90
11089;DHT22;5598;48.648;8.908;2023-01-16T08:49:40;2.10;99.90
11089;DHT22;5598;48.648;8.908;2023-01-16T08:52:27;2.20;99.90
11089;DHT22;5598;48.648;8.908;2023-01-16T08:54:56;2.20;99.90
11089;DHT22;5598;48.648;8.908;2023-01-16T08:57:23;2.20;99.90
11089;DHT22;5598;48.648;8.908;2023-01-16T08:59:50;2.30;99.90
11089;DHT22;5598;48.648;8.908;2023-01-16T09:02:17;2.30;99.90
11089;DHT22;5598;48.648;8.908;2023-01-16T09:04:44;2.30;99.90
11089;DHT22;5598;48.648;8.908;2023-01-16T09:07:11;2.30;99.90
11089;DHT22;5598;48.648;8.908;2023-01-16T09:09:39;2.40;99.90
11089;DHT22;5598;48.648;8.908;2023-01-16T09:12:08;2.40;99.90
11089;DHT22;5598;48.648;8.908;2023-01-16T09:14:52;2.40;99.90
11089;DHT22;5598;48.648;8.908;2023-01-16T09:17:21;2.30;99.90
11089;DHT22;5598;48.648;8.908;2023-01-16T09:19:48;2.40;99.90
11089;DHT22;5598;48.648;8.908;2023-01-16T09:22:14;2.50;99.90
11089;DHT22;5598;48.648;8.908;2023-01-16T09:24:42;2.50;99.90
11089;DHT22;5598;48.648;8.908;2023-01-16T09:27:10;2.60;99.90
11089;DHT22;5598;48.648;8.908;2023-01-16T09:29:38;2.80;99.90
11089;DHT22;5598;48.648;8.908;2023-01-16T09:32:05;2.80;99.90
11089;DHT22;5598;48.648;8.908;2023-01-16T09:34:34;2.90;99.90
11089;DHT22;5598;48.648;8.908;2023-01-16T09:37:01;2.90;99.90
11089;DHT22;5598;48.648;8.908;2023-01-16T09:39:28;3.00;99.90
11089;DHT22;5598;48.648;8.908;2023-01-16T09:42:15;3.10;99.90
11089;DHT22;5598;48.648;8.908;2023-01-16T09:45:06;3.20;99.90
11089;DHT22;5598;48.648;8.908;2023-01-16T09:47:34;3.30;99.90
11089;DHT22;5598;48.648;8.908;2023-01-16T09:50:04;3.30;99.90
11089;DHT22;5598;48.648;8.908;2023-01-16T09:52:34;3.40;99.90
11089;DHT22;5598;48.648;8.908;2023-01-16T09:55:24;3.40;99.90
11089;DHT22;5598;48.648;8.908;2023-01-16T09:58:14;3.40;99.90
11089;DHT22;5598;48.648;8.908;2023-01-16T10:01:02;3.50;99.90
11089;DHT22;5598;48.648;8.908;2023-01-16T10:03:29;3.50;99.90
11089;DHT22;5598;48.648;8.908;2023-01-16T10:06:02;3.50;99.90
11089;DHT22;5598;48.648;8.908;2023-01-16T10:08:40;3.50;99.90
11089;DHT22;5598;48.648;8.908;2023-01-16T10:11:17;3.50;99.90
11089;DHT22;5598;48.648;8.908;2023-01-16T10:14:03;3.60;99.90
11089;DHT22;5598;48.648;8.908;2023-01-16T10:16:41;3.60;99.90
11089;DHT22;5598;48.648;8.908;2023-01-16T10:19:20;3.60;99.90
11089;DHT22;5598;48.648;8.908;2023-01-16T10:21:57;3.70;99.90
11089;DHT22;5598;48.648;8.908;2023-01-16T10:24:35;3.70;99.90
11089;DHT22;5598;48.648;8.908;2023-01-16T10:27:11;3.70;99.90
11089;DHT22;5598;48.648;8.908;2023-01-16T10:29:44;3.80;99.90
11089;DHT22;5598;48.648;8.908;2023-01-16T10:32:18;3.80;99.90
11089;DHT22;5598;48.648;8.908;2023-01-16T10:34:51;4.00;99.90
11089;DHT22;5598;48.648;8.908;2023-01-16T10:37:19;4.10;99.90
11089;DHT22;5598;48.648;8.908;2023-01-16T10:39:47;4.20;99.90
11089;DHT22;5598;48.648;8.908;2023-01-16T10:42:18;4.20;99.90
11089;DHT22;5598;48.648;8.908;2023-01-16T10:45:13;4.30;99.90
11089;DHT22;5598;48.648;8.908;2023-01-16T10:47:58;4.30;99.90
11089;DHT22;5598;48.648;8.908;2023-01-16T10:50:43;4.30;99.90
11089;DHT22;5598;48.648;8.908;2023-01-16T10:53:11;4.30;99.90
11089;DHT22;5598;48.648;8.908;2023-01-16T10:55:39;4.30;99.90
11089;DHT22;5598;48.648;8.908;2023-01-16T10:58:19;4.20;99.90
11089;DHT22;5598;48.648;8.908;2023-01-16T11:00:50;4.20;99.90
11089;DHT22;5598;48.648;8.908;2023-01-16T11:05:44;4.20;99.90
11089;DHT22;5598;48.648;8.908;2023-01-16T11:08:12;4.20;99.90
11089;DHT22;5598;48.648;8.908;2023-01-16T11:10:39;4.20;99.90
11089;DHT22;5598;48.648;8.908;2023-01-16T11:13:13;4.20;99.90
11089;DHT22;5598;48.648;8.908;2023-01-16T11:16:04;4.20;99.90
11089;DHT22;5598;48.648;8.908;2023-01-16T11:18:49;4.10;99.90
11089;DHT22;5598;48.648;8.908;2023-01-16T11:21:22;4.20;99.90
11089;DHT22;5598;48.648;8.908;2023-01-16T11:23:56;4.20;99.90
11089;DHT22;5598;48.648;8.908;2023-01-16T11:26:24;4.20;99.90
11089;DHT22;5598;48.648;8.908;2023-01-16T11:28:53;4.20;99.90
11089;DHT22;5598;48.648;8.908;2023-01-16T11:31:24;4.10;99.90
11089;DHT22;5598;48.648;8.908;2023-01-16T11:33:54;4.20;99.90
11089;DHT22;5598;48.648;8.908;2023-01-16T11:36:29;4.10;99.90
11089;DHT22;5598;48.648;8.908;2023-01-16T11:38:57;4.10;99.90
11089;DHT22;5598;48.648;8.908;2023-01-16T11:41:29;4.10;99.90
11089;DHT22;5598;48.648;8.908;2023-01-16T11:44:15;4.20;99.90
11089;DHT22;5598;48.648;8.908;2023-01-16T11:47:01;4.30;99.90
11089;DHT22;5598;48.648;8.908;2023-01-16T11:49:33;4.30;99.90
11089;DHT22;5598;48.648;8.908;2023-01-16T11:52:01;4.30;99.90
11089;DHT22;5598;48.648;8.908;2023-01-16T11:54:31;4.30;99.90
11089;DHT22;5598;48.648;8.908;2023-01-16T11:57:17;4.30;99.90
11089;DHT22;5598;48.648;8.908;2023-01-16T12:00:17;4.40;99.90
11089;DHT22;5598;48.648;8.908;2023-01-16T12:05:50;4.40;99.90
11089;DHT22;5598;48.648;8.908;2023-01-16T12:11:32;4.30;99.90
11089;DHT22;5598;48.648;8.908;2023-01-16T12:14:08;4.30;99.90
11089;DHT22;5598;48.648;8.908;2023-01-16T12:16:58;4.20;99.90
11089;DHT22;5598;48.648;8.908;2023-01-16T12:19:56;4.20;99.90
11089;DHT22;5598;48.648;8.908;2023-01-16T12:22:41;4.20;99.90
11089;DHT22;5598;48.648;8.908;2023-01-16T12:25:23;4.20;99.90
11089;DHT22;5598;48.648;8.908;2023-01-16T12:27:56;4.20;99.90
11089;DHT22;5598;48.648;8.908;2023-01-16T12:30:32;4.30;99.90
11089;DHT22;5598;48.648;8.908;2023-01-16T12:33:06;4.30;99.90
11089;DHT22;5598;48.648;8.908;2023-01-16T12:35:47;4.30;99.90
11089;DHT22;5598;48.648;8.908;2023-01-16T12:38:18;4.40;99.90
11089;DHT22;5598;48.648;8.908;2023-01-16T12:41:01;4.50;99.90
11089;DHT22;5598;48.648;8.908;2023-01-16T12:43:51;4.50;99.90
11089;DHT22;5598;48.648;8.908;2023-01-16T12:46:25;4.50;99.90
11089;DHT22;5598;48.648;8.908;2023-01-16T12:49:02;4.60;99.90
11089;DHT22;5598;48.648;8.908;2023-01-16T12:51:45;4.60;99.90
11089;DHT22;5598;48.648;8.908;2023-01-16T12:54:32;4.70;99.90
11089;DHT22;5598;48.648;8.908;2023-01-16T12:57:11;4.70;99.90
11089;DHT22;5598;48.648;8.908;2023-01-16T12:59:46;4.80;99.90
11089;DHT22;5598;48.648;8.908;2023-01-16T13:02:21;4.80;99.90
11089;DHT22;5598;48.648;8.908;2023-01-16T13:04:53;4.90;99.90
11089;DHT22;5598;48.648;8.908;2023-01-16T13:07:25;4.90;99.90
11089;DHT22;5598;48.648;8.908;2023-01-16T13:10:01;5.00;99.90
11089;DHT22;5598;48.648;8.908;2023-01-16T13:12:43;5.10;99.90
11089;DHT22;5598;48.648;8.908;2023-01-16T13:15:32;5.10;99.90
11089;DHT22;5598;48.648;8.908;2023-01-16T13:18:03;5.20;99.90
11089;DHT22;5598;48.648;8.908;2023-01-16T13:20:32;5.20;99.90
11089;DHT22;5598;48.648;8.908;2023-01-16T13:23:03;5.20;99.90
11089;DHT22;5598;48.648;8.908;2023-01-16T13:25:34;5.20;99.90
11089;DHT22;5598;48.648;8.908;2023-01-16T13:28:06;5.20;99.90
11089;DHT22;5598;48.648;8.908;2023-01-16T13:30:34;5.20;99.90
11089;DHT22;5598;48.648;8.908;2023-01-16T13:33:04;5.30;99.90
11089;DHT22;5598;48.648;8.908;2023-01-16T13:35:37;5.30;99.90
11089;DHT22;5598;48.648;8.908;2023-01-16T13:38:21;5.30;99.90
11089;DHT22;5598;48.648;8.908;2023-01-16T13:41:01;5.30;99.90
11089;DHT22;5598;48.648;8.908;2023-01-16T13:43:40;5.40;99.90
11089;DHT22;5598;48.648;8.908;2023-01-16T13:46:26;5.50;99.90
11089;DHT22;5598;48.648;8.908;2023-01-16T13:48:57;5.50;99.90
11089;DHT22;5598;48.648;8.908;2023-01-16T13:51:25;5.50;99.90
11089;DHT22;5598;48.648;8.908;2023-01-16T13:53:56;5.40;99.90
11089;DHT22;5598;48.648;8.908;2023-01-16T13:56:25;5.40;99.90
11089;DHT22;5598;48.648;8.908;2023-01-16T13:58:56;5.40;99.90
11089;DHT22;5598;48.648;8.908;2023-01-16T14:01:36;5.40;99.90
11089;DHT22;5598;48.648;8.908;2023-01-16T14:04:29;5.20;99.90
11089;DHT22;5598;48.648;8.908;2023-01-16T14:06:57;5.10;99.90
11089;DHT22;5598;48.648;8.908;2023-01-16T14:10:06;5.00;99.90
11089;DHT22;5598;48.648;8.908;2023-01-16T14:12:42;4.90;99.90
11089;DHT22;5598;48.648;8.908;2023-01-16T14:15:16;4.70;99.90
11089;DHT22;5598;48.648;8.908;2023-01-16T14:18:02;4.70;99.90
11089;DHT22;5598;48.648;8.908;2023-01-16T14:20:43;4.50;99.90
11089;DHT22;5598;48.648;8.908;2023-01-16T14:23:18;4.30;99.90
11089;DHT22;5598;48.648;8.908;2023-01-16T14:26:05;4.30;99.90
11089;DHT22;5598;48.648;8.908;2023-01-16T14:28:33;4.20;99.90
11089;DHT22;5598;48.648;8.908;2023-01-16T14:31:01;4.20;99.90
11089;DHT22;5598;48.648;8.908;2023-01-16T14:33:28;4.20;99.90
11089;DHT22;5598;48.648;8.908;2023-01-16T14:35:57;4.20;99.90
11089;DHT22;5598;48.648;8.908;2023-01-16T14:38:27;4.30;99.90
11089;DHT22;5598;48.648;8.908;2023-01-16T14:40:58;4.20;99.90
11089;DHT22;5598;48.648;8.908;2023-01-16T14:44:02;4.20;99.90
11089;DHT22;5598;48.648;8.908;2023-01-16T14:46:51;4.20;99.90
11089;DHT22;5598;48.648;8.908;2023-01-16T14:49:56;4.20;99.90
11089;DHT22;5598;48.648;8.908;2023-01-16T14:52:48;4.20;99.90
11089;DHT22;5598;48.648;8.908;2023-01-16T14:55:42;4.10;99.90
11089;DHT22;5598;48.648;8.908;2023-01-16T14:58:12;4.10;99.90
11089;DHT22;5598;48.648;8.908;2023-01-16T15:00:41;4.00;99.90
11089;DHT22;5598;48.648;8.908;2023-01-16T15:03:11;4.00;99.90
11089;DHT22;5598;48.648;8.908;2023-01-16T15:05:42;4.10;99.90
11089;DHT22;5598;48.648;8.908;2023-01-16T15:08:21;4.00;99.90
11089;DHT22;5598;48.648;8.908;2023-01-16T15:10:51;4.10;99.90
11089;DHT22;5598;48.648;8.908;2023-01-16T15:13:22;4.10;99.90
11089;DHT22;5598;48.648;8.908;2023-01-16T15:15:53;4.20;99.90
11089;DHT22;5598;48.648;8.908;2023-01-16T15:18:20;4.20;99.90
11089;DHT22;5598;48.648;8.908;2023-01-16T15:21:12;4.20;99.90
11089;DHT22;5598;48.648;8.908;2023-01-16T15:24:03;4.20;99.90
11089;DHT22;5598;48.648;8.908;2023-01-16T15:26:46;4.00;99.90
11089;DHT22;5598;48.648;8.908;2023-01-16T15:29:44;3.90;99.90
11089;DHT22;5598;48.648;8.908;2023-01-16T15:32:16;3.70;99.90
11089;DHT22;5598;48.648;8.908;2023-01-16T15:34:46;3.60;99.90
11089;DHT22;5598;48.648;8.908;2023-01-16T15:37:22;3.50;99.90
11089;DHT22;5598;48.648;8.908;2023-01-16T15:39:50;3.40;99.90
11089;DHT22;5598;48.648;8.908;2023-01-16T15:42:20;3.30;99.90
11089;DHT22;5598;48.648;8.908;2023-01-16T15:45:15;3.30;99.90
11089;DHT22;5598;48.648;8.908;2023-01-16T15:48:31;3.20;99.90
11089;DHT22;5598;48.648;8.908;2023-01-16T15:51:06;3.10;99.90
11089;DHT22;5598;48.648;8.908;2023-01-16T15:53:36;3.10;99.90
11089;DHT22;5598;48.648;8.908;2023-01-16T15:56:15;3.00;99.90
11089;DHT22;5598;48.648;8.908;2023-01-16T15:58:43;3.00;99.90
11089;DHT22;5598;48.648;8.908;2023-01-16T16:01:13;3.00;99.90
11089;DHT22;5598;48.648;8.908;2023-01-16T16:03:43;3.00;99.90
11089;DHT22;5598;48.648;8.908;2023-01-16T16:06:16;2.90;99.90
11089;DHT22;5598;48.648;8.908;2023-01-16T16:08:46;2.90;99.90
11089;DHT22;5598;48.648;8.908;2023-01-16T16:11:17;2.80;99.90
11089;DHT22;5598;48.648;8.908;2023-01-16T16:14:02;2.80;99.90
11089;DHT22;5598;48.648;8.908;2023-01-16T16:16:59;2.80;99.90
11089;DHT22;5598;48.648;8.908;2023-01-16T16:19:45;2.80;99.90
11089;DHT22;5598;48.648;8.908;2023-01-16T16:22:17;2.80;99.90
11089;DHT22;5598;48.648;8.908;2023-01-16T16:25:18;2.80;99.90
11089;DHT22;5598;48.648;8.908;2023-01-16T16:27:47;2.80;99.90
11089;DHT22;5598;48.648;8.908;2023-01-16T16:30:18;2.80;99.90
11089;DHT22;5598;48.648;8.908;2023-01-16T16:32:46;2.70;99.90
11089;DHT22;5598;48.648;8.908;2023-01-16T16:35:20;2.70;99.90
11089;DHT22;5598;48.648;8.908;2023-01-16T16:37:47;2.70;99.90
11089;DHT22;5598;48.648;8.908;2023-01-16T16:40:15;2.60;99.90
11089;DHT22;5598;48.648;8.908;2023-01-16T16:42:53;2.60;99.90
11089;DHT22;5598;48.648;8.908;2023-01-16T16:45:30;2.60;99.90
11089;DHT22;5598;48.648;8.908;2023-01-16T16:48:20;2.50;99.90
11089;DHT22;5598;48.648;8.908;2023-01-16T16:51:10;2.50;99.90
11089;DHT22;5598;48.648;8.908;2023-01-16T16:53:44;2.50;99.90
11089;DHT22;5598;48.648;8.908;2023-01-16T16:56:12;2.50;99.90